Time,TemperatureF,DewpointF,PressureIn,WindDirection,WindDirectionDegrees,WindSpeedMPH,WindSpeedGustMPH,Humidity,HourlyPrecipIn,Conditions,Clouds,dailyrainin,SoftwareType,DateUTC
2013-06-05 00:01:00,57.9,13.4,29.68,SSE,147,3.6,3.6,17,0.00,,CLR,0.00,VWS V14.01,2013-06-05 04:01:00,
2013-06-05 00:02:00,57.9,13.4,29.68,SSE,151,0.0,0.0,17,0.00,,CLR,0.00,VWS V14.01,2013-06-05 04:02:00,
2013-06-05 00:07:00,57.7,13.2,29.68,SSE,152,3.1,3.1,17,0.00,,CLR,0.00,VWS V14.01,2013-06-05 04:07:00,
2013-06-05 00:12:00,57.6,13.1,29.68,SSE,153,0.0,0.0,17,0.00,,CLR,0.00,VWS V14.01,2013-06-05 04:12:00,
2013-06-05 00:17:00,57.2,12.8,29.68,SSE,156,2.7,2.7,17,0.00,,CLR,0.00,VWS V14.01,2013-06-05 04:17:00,
2013-06-05 00:22:00,57.2,12.8,29.68,SSE,152,0.0,2.7,17,0.00,,CLR,0.00,VWS V14.01,2013-06-05 04:22:00,
2013-06-05 00:27:00,56.8,12.5,29.68,SSE,152,0.0,0.0,17,0.00,,CLR,0.00,VWS V14.01,2013-06-05 04:27:00,
2013-06-05 00:32:00,56.7,12.4,29.68,SSE,152,0.0,0.0,17,0.00,,CLR,0.00,VWS V14.01,2013-06-05 04:32:00,
2013-06-05 00:37:00,56.3,12.1,29.68,SSE,152,0.0,0.0,17,0.00,,CLR,0.00,VWS V14.01,2013-06-05 04:37:00,
2013-06-05 00:42:00,56.1,11.9,29.68,SSE,152,0.0,0.0,17,0.00,,CLR,0.00,VWS V14.01,2013-06-05 04:42:00,
2013-06-05 00:47:00,55.8,11.6,29.68,SSE,152,0.0,0.0,17,0.00,,CLR,0.00,VWS V14.01,2013-06-05 04:47:00,
2013-06-05 00:52:00,55.4,11.3,29.68,SSE,152,0.0,0.0,17,0.00,,CLR,0.00,VWS V14.01,2013-06-05 04:52:00,
2013-06-05 00:57:00,55.0,12.3,29.68,SSE,152,0.0,0.0,18,0.00,,CLR,0.00,VWS V14.01,2013-06-05 04:57:00,
2013-06-05 01:02:00,54.9,12.2,29.68,SSE,152,0.0,0.0,18,0.00,,CLR,0.00,VWS V14.01,2013-06-05 05:02:00,
2013-06-05 01:07:00,54.5,11.9,29.65,SSE,152,0.0,0.0,18,0.00,,CLR,0.00,VWS V14.01,2013-06-05 05:07:00,
2013-06-05 01:12:00,54.3,11.7,29.65,SSE,152,0.0,0.0,18,0.00,,CLR,0.00,VWS V14.01,2013-06-05 05:12:00,
2013-06-05 01:17:00,54.1,11.6,29.65,SSE,152,0.0,0.0,18,0.00,,CLR,0.00,VWS V14.01,2013-06-05 05:17:00,
2013-06-05 01:22:00,53.8,11.3,29.65,SSE,151,0.0,0.0,18,0.00,,CLR,0.00,VWS V14.01,2013-06-05 05:22:00,
2013-06-05 01:27:00,53.8,11.3,29.65,WNW,289,0.0,0.0,18,0.00,,CLR,0.00,VWS V14.01,2013-06-05 05:27:00,
2013-06-05 01:32:00,54.7,12.0,29.65,North,0,0.0,3.1,18,0.00,,CLR,0.00,VWS V14.01,2013-06-05 05:32:00,
2013-06-05 01:37:00,55.9,11.8,29.65,NW,321,3.6,4.0,17,0.00,,CLR,0.00,VWS V14.01,2013-06-05 05:37:00,
2013-06-05 01:42:00,56.7,12.4,29.65,NW,321,4.0,5.8,17,0.00,,CLR,0.00,VWS V14.01,2013-06-05 05:42:00,
2013-06-05 01:47:00,57.0,12.7,29.65,NNW,336,3.1,5.8,17,0.00,,CLR,0.00,VWS V14.01,2013-06-05 05:47:00,
2013-06-05 01:52:00,57.2,12.8,29.65,NW,315,3.1,4.0,17,0.00,,CLR,0.00,VWS V14.01,2013-06-05 05:52:00,
2013-06-05 01:57:00,57.2,12.8,29.65,WNW,294,0.0,0.0,17,0.00,,CLR,0.00,VWS V14.01,2013-06-05 05:57:00,
2013-06-05 02:02:00,57.0,12.7,29.65,WNW,294,0.0,0.0,17,0.00,,CLR,0.00,VWS V14.01,2013-06-05 06:02:00,
2013-06-05 02:07:00,56.7,12.4,29.65,WNW,294,0.0,0.0,17,0.00,,CLR,0.00,VWS V14.01,2013-06-05 06:07:00,
2013-06-05 02:13:00,56.5,12.2,29.68,SSE,150,0.0,0.0,17,0.00,,CLR,0.00,VWS V14.01,2013-06-05 06:13:00,
2013-06-05 02:17:00,56.1,11.9,29.68,SSE,150,0.0,0.0,17,0.00,,CLR,0.00,VWS V14.01,2013-06-05 06:17:00,
2013-06-05 02:23:00,55.8,11.6,29.68,SSE,151,0.0,0.0,17,0.00,,CLR,0.00,VWS V14.01,2013-06-05 06:23:00,
2013-06-05 02:28:00,55.2,12.5,29.68,East,80,0.0,0.0,18,0.00,,CLR,0.00,VWS V14.01,2013-06-05 06:28:00,
2013-06-05 02:33:00,55.0,12.3,29.68,ENE,75,0.0,0.0,18,0.00,,CLR,0.00,VWS V14.01,2013-06-05 06:33:00,
2013-06-05 02:38:00,54.9,12.2,29.68,ENE,75,0.0,0.0,18,0.00,,CLR,0.00,VWS V14.01,2013-06-05 06:38:00,
2013-06-05 02:43:00,54.7,12.0,29.68,ENE,75,0.0,0.0,18,0.00,,CLR,0.00,VWS V14.01,2013-06-05 06:43:00,
2013-06-05 02:48:00,54.5,11.9,29.68,ENE,75,0.0,0.0,18,0.00,,CLR,0.00,VWS V14.01,2013-06-05 06:48:00,
2013-06-05 02:53:00,54.0,11.4,29.68,ESE,120,0.0,0.0,18,0.00,,CLR,0.00,VWS V14.01,2013-06-05 06:53:00,
2013-06-05 02:58:00,53.6,11.1,29.68,ESE,120,0.0,0.0,18,0.00,,CLR,0.00,VWS V14.01,2013-06-05 06:58:00,
2013-06-05 03:03:00,53.2,10.9,29.68,ESE,120,0.0,0.0,18,0.00,,CLR,0.00,VWS V14.01,2013-06-05 07:03:00,
2013-06-05 03:08:00,52.9,10.6,29.68,ESE,120,0.0,0.0,18,0.00,,CLR,0.00,VWS V14.01,2013-06-05 07:08:00,
2013-06-05 03:13:00,52.5,10.2,29.68,ESE,120,0.0,0.0,18,0.00,,CLR,0.00,VWS V14.01,2013-06-05 07:13:00,
2013-06-05 03:18:00,52.3,10.1,29.68,SE,146,0.0,0.0,18,0.00,,CLR,0.00,VWS V14.01,2013-06-05 07:18:00,
2013-06-05 03:23:00,52.0,9.8,29.68,SE,146,0.0,0.0,18,0.00,,CLR,0.00,VWS V14.01,2013-06-05 07:23:00,
2013-06-05 03:28:00,51.6,10.7,29.68,SE,146,0.0,0.0,19,0.00,,CLR,0.00,VWS V14.01,2013-06-05 07:28:00,
2013-06-05 03:33:00,51.4,10.6,29.68,SSE,151,0.0,0.0,19,0.00,,CLR,0.00,VWS V14.01,2013-06-05 07:33:00,
2013-06-05 03:38:00,51.1,10.3,29.68,SSE,150,0.0,0.0,19,0.00,,CLR,0.00,VWS V14.01,2013-06-05 07:38:00,
2013-06-05 03:43:00,50.9,10.1,29.68,SSE,150,0.0,0.0,19,0.00,,CLR,0.00,VWS V14.01,2013-06-05 07:43:00,
2013-06-05 03:48:00,50.7,10.0,29.68,SSE,150,0.0,0.0,19,0.00,,CLR,0.00,VWS V14.01,2013-06-05 07:48:00,
2013-06-05 03:53:00,50.4,9.7,29.68,SSE,150,0.0,0.0,19,0.00,,CLR,0.00,VWS V14.01,2013-06-05 07:53:00,
2013-06-05 03:58:00,50.4,9.7,29.68,SSE,150,0.0,0.0,19,0.00,,CLR,0.00,VWS V14.01,2013-06-05 07:58:00,
2013-06-05 04:03:00,50.2,9.5,29.68,SSE,150,0.0,0.0,19,0.00,,CLR,0.00,VWS V14.01,2013-06-05 08:03:00,
2013-06-05 04:08:00,50.0,9.4,29.68,SSE,150,0.0,0.0,19,0.00,,CLR,0.00,VWS V14.01,2013-06-05 08:08:00,
2013-06-05 04:13:00,49.8,9.2,29.68,SSE,150,0.0,0.0,19,0.00,,CLR,0.00,VWS V14.01,2013-06-05 08:13:00,
2013-06-05 04:18:00,49.6,9.1,29.68,SSE,150,0.0,0.0,19,0.00,,CLR,0.00,VWS V14.01,2013-06-05 08:18:00,
2013-06-05 04:23:00,49.5,11.2,29.68,SSE,150,0.0,0.0,21,0.00,,CLR,0.00,VWS V14.01,2013-06-05 08:23:00,
2013-06-05 04:28:00,49.5,11.2,29.68,SSE,150,0.0,0.0,21,0.00,,CLR,0.00,VWS V14.01,2013-06-05 08:28:00,
2013-06-05 04:33:00,49.3,11.0,29.68,SSE,151,0.0,0.0,21,0.00,,CLR,0.00,VWS V14.01,2013-06-05 08:33:00,
2013-06-05 04:38:00,49.1,10.9,29.68,SSE,150,0.0,0.0,21,0.00,,CLR,0.00,VWS V14.01,2013-06-05 08:38:00,
2013-06-05 04:43:00,48.9,10.7,29.68,SSE,150,0.0,0.0,21,0.00,,CLR,0.00,VWS V14.01,2013-06-05 08:43:00,
2013-06-05 04:48:00,48.7,10.6,29.68,SSE,150,0.0,0.0,21,0.00,,CLR,0.00,VWS V14.01,2013-06-05 08:48:00,
2013-06-05 04:53:00,48.7,10.6,29.68,SSE,150,0.0,0.0,21,0.00,,CLR,0.00,VWS V14.01,2013-06-05 08:53:00,
2013-06-05 04:58:00,48.6,13.4,29.68,SSE,150,0.0,0.0,24,0.00,,CLR,0.00,VWS V14.01,2013-06-05 08:58:00,
2013-06-05 05:03:00,48.4,13.3,29.68,SSE,150,0.0,0.0,24,0.00,,CLR,0.00,VWS V14.01,2013-06-05 09:03:00,
2013-06-05 05:08:00,48.4,13.3,29.68,SSE,150,0.0,0.0,24,0.00,,CLR,0.00,VWS V14.01,2013-06-05 09:08:00,
2013-06-05 05:13:00,48.2,13.1,29.68,SSE,151,0.0,0.0,24,0.00,,CLR,0.00,VWS V14.01,2013-06-05 09:13:00,
2013-06-05 05:18:00,48.0,13.0,29.68,SSE,150,0.0,0.0,24,0.00,,CLR,0.00,VWS V14.01,2013-06-05 09:18:00,
2013-06-05 05:23:00,47.8,15.5,29.71,SSE,150,0.0,0.0,27,0.00,,CLR,0.00,VWS V14.01,2013-06-05 09:23:00,
2013-06-05 05:28:00,47.8,15.5,29.71,NW,321,0.0,0.0,27,0.00,,CLR,0.00,VWS V14.01,2013-06-05 09:28:00,
2013-06-05 05:33:00,47.7,15.3,29.71,NW,321,0.0,0.0,27,0.00,,CLR,0.00,VWS V14.01,2013-06-05 09:33:00,
2013-06-05 05:38:00,47.7,15.3,29.71,SSE,154,0.0,0.0,27,0.00,,CLR,0.00,VWS V14.01,2013-06-05 09:38:00,
2013-06-05 05:43:00,47.7,15.3,29.71,SSE,154,0.0,0.0,27,0.00,,CLR,0.00,VWS V14.01,2013-06-05 09:43:00,
2013-06-05 05:48:00,47.7,15.3,29.71,SSE,154,0.0,0.0,27,0.00,,CLR,0.00,VWS V14.01,2013-06-05 09:48:00,
2013-06-05 05:53:00,47.5,16.0,29.71,SSE,154,0.0,0.0,28,0.00,,CLR,0.00,VWS V14.01,2013-06-05 09:53:00,
2013-06-05 05:58:00,47.5,16.0,29.71,SSE,154,0.0,0.0,28,0.00,,CLR,0.00,VWS V14.01,2013-06-05 09:58:00,
2013-06-05 06:03:00,47.5,16.0,29.71,SSE,154,0.0,0.0,28,0.00,,CLR,0.00,VWS V14.01,2013-06-05 10:03:00,
2013-06-05 06:08:00,47.5,16.0,29.71,SSE,148,0.0,0.0,28,0.00,,CLR,0.00,VWS V14.01,2013-06-05 10:08:00,
2013-06-05 06:13:00,47.7,17.0,29.71,SSE,148,0.0,0.0,29,0.00,,CLR,0.00,VWS V14.01,2013-06-05 10:13:00,
2013-06-05 06:18:00,47.7,17.0,29.71,SSE,148,0.0,0.0,29,0.00,,CLR,0.00,VWS V14.01,2013-06-05 10:18:00,
2013-06-05 06:23:00,47.8,17.1,29.71,SSE,148,0.0,0.0,29,0.00,,CLR,0.00,VWS V14.01,2013-06-05 10:23:00,
2013-06-05 06:28:00,47.8,17.1,29.71,SSE,148,0.0,0.0,29,0.00,,CLR,0.00,VWS V14.01,2013-06-05 10:28:00,
2013-06-05 06:33:00,48.4,17.6,29.71,SSE,148,0.0,0.0,29,0.00,,CLR,0.00,VWS V14.01,2013-06-05 10:33:00,
2013-06-05 06:38:00,48.7,17.9,29.74,SSE,148,0.0,0.0,29,0.00,,CLR,0.00,VWS V14.01,2013-06-05 10:38:00,
2013-06-05 06:43:00,48.9,18.1,29.74,SSE,148,0.0,0.0,29,0.00,,CLR,0.00,VWS V14.01,2013-06-05 10:43:00,
2013-06-05 06:48:00,49.3,18.4,29.74,SSE,148,0.0,0.0,29,0.00,,CLR,0.00,VWS V14.01,2013-06-05 10:48:00,
2013-06-05 06:53:00,49.3,18.4,29.74,SSE,148,0.0,0.0,29,0.00,,CLR,0.00,VWS V14.01,2013-06-05 10:53:00,
2013-06-05 06:58:00,50.2,19.2,29.74,SSE,148,0.0,0.0,29,0.00,,CLR,0.00,VWS V14.01,2013-06-05 10:58:00,
2013-06-05 07:03:00,50.5,19.5,29.74,SSE,148,0.0,0.0,29,0.00,,CLR,0.00,VWS V14.01,2013-06-05 11:03:00,
2013-06-05 07:08:00,50.7,19.6,29.74,SSE,148,0.0,0.0,29,0.00,,CLR,0.00,VWS V14.01,2013-06-05 11:08:00,
2013-06-05 07:13:00,51.4,21.1,29.74,SSE,148,0.0,0.0,30,0.00,,CLR,0.00,VWS V14.01,2013-06-05 11:13:00,
2013-06-05 07:18:00,52.0,20.7,29.74,SSE,148,0.0,0.0,29,0.00,,CLR,0.00,VWS V14.01,2013-06-05 11:18:00,
2013-06-05 07:23:00,52.3,20.2,29.74,SSE,148,0.0,0.0,28,0.00,,CLR,0.00,VWS V14.01,2013-06-05 11:23:00,
2013-06-05 07:28:00,53.2,20.1,29.74,SSE,148,0.0,0.0,27,0.00,,CLR,0.00,VWS V14.01,2013-06-05 11:28:00,
2013-06-05 07:33:00,53.8,16.9,29.74,WNW,298,0.0,0.0,23,0.00,,CLR,0.00,VWS V14.01,2013-06-05 11:33:00,
2013-06-05 07:38:00,54.7,14.4,29.74,NW,319,2.7,2.7,20,0.00,,CLR,0.00,VWS V14.01,2013-06-05 11:38:00,
2013-06-05 07:43:00,55.6,15.2,29.74,WNW,303,0.0,0.0,20,0.00,,CLR,0.00,VWS V14.01,2013-06-05 11:43:00,
2013-06-05 07:48:00,56.3,15.8,29.74,WNW,303,0.0,0.0,20,0.00,,CLR,0.00,VWS V14.01,2013-06-05 11:48:00,
2013-06-05 07:53:00,56.7,12.4,29.74,WNW,293,0.0,0.0,17,0.00,,CLR,0.00,VWS V14.01,2013-06-05 11:53:00,
2013-06-05 07:58:00,57.0,12.7,29.74,NW,308,0.0,0.0,17,0.00,,CLR,0.00,VWS V14.01,2013-06-05 11:58:00,
2013-06-05 08:03:00,57.7,13.2,29.74,WSW,253,0.0,0.0,17,0.00,,CLR,0.00,VWS V14.01,2013-06-05 12:03:00,
2013-06-05 08:08:00,58.1,13.5,29.74,NNW,329,0.0,0.0,17,0.00,,CLR,0.00,VWS V14.01,2013-06-05 12:08:00,
2013-06-05 08:13:00,58.5,13.8,29.74,NW,315,0.0,0.0,17,0.00,,CLR,0.00,VWS V14.01,2013-06-05 12:13:00,
2013-06-05 08:18:00,58.5,13.8,29.74,NNW,328,0.0,0.0,17,0.00,,CLR,0.00,VWS V14.01,2013-06-05 12:18:00,
2013-06-05 08:23:00,59.4,14.6,29.74,WNW,289,4.0,4.0,17,0.00,,CLR,0.00,VWS V14.01,2013-06-05 12:23:00,
2013-06-05 08:28:00,59.4,14.6,29.74,NW,307,2.7,2.7,17,0.00,,CLR,0.00,VWS V14.01,2013-06-05 12:28:00,
2013-06-05 08:33:00,60.1,15.1,29.74,SE,125,0.0,0.0,17,0.00,,CLR,0.00,VWS V14.01,2013-06-05 12:33:00,
2013-06-05 08:38:00,60.3,15.3,29.74,ESE,110,0.0,0.0,17,0.00,,CLR,0.00,VWS V14.01,2013-06-05 12:38:00,
2013-06-05 08:43:00,60.6,15.6,29.77,SW,219,0.0,0.0,17,0.00,,CLR,0.00,VWS V14.01,2013-06-05 12:43:00,
2013-06-05 08:48:00,61.0,14.5,29.77,West,273,2.7,2.7,16,0.00,,CLR,0.00,VWS V14.01,2013-06-05 12:48:00,
2013-06-05 08:53:00,61.0,14.5,29.77,NNW,337,0.0,0.0,16,0.00,,CLR,0.00,VWS V14.01,2013-06-05 12:53:00,
2013-06-05 08:58:00,61.3,14.8,29.77,NW,316,0.0,0.0,16,0.00,,CLR,0.00,VWS V14.01,2013-06-05 12:58:00,
2013-06-05 09:03:00,61.7,15.1,29.77,ENE,65,0.0,0.0,16,0.00,,CLR,0.00,VWS V14.01,2013-06-05 13:03:00,
2013-06-05 09:08:00,62.8,15.9,29.77,NNE,23,0.0,0.0,16,0.00,,CLR,0.00,VWS V14.01,2013-06-05 13:08:00,
2013-06-05 09:13:00,63.1,16.2,29.77,NW,307,0.0,0.0,16,0.00,,CLR,0.00,VWS V14.01,2013-06-05 13:13:00,
2013-06-05 09:18:00,63.3,16.4,29.77,SSE,152,0.0,0.0,16,0.00,,CLR,0.00,VWS V14.01,2013-06-05 13:18:00,
2013-06-05 09:23:00,64.0,17.0,29.77,NW,318,0.0,0.0,16,0.00,,CLR,0.00,VWS V14.01,2013-06-05 13:23:00,
2013-06-05 09:28:00,64.2,17.1,29.77,NNW,337,0.0,0.0,16,0.00,,CLR,0.00,VWS V14.01,2013-06-05 13:28:00,
2013-06-05 09:33:00,64.6,15.9,29.77,NNE,16,0.0,0.0,15,0.00,,CLR,0.00,VWS V14.01,2013-06-05 13:33:00,
2013-06-05 09:38:00,65.1,16.4,29.77,NNE,15,0.0,0.0,15,0.00,,CLR,0.00,VWS V14.01,2013-06-05 13:38:00,
2013-06-05 09:43:00,66.0,17.1,29.77,SW,218,0.0,0.0,15,0.00,,CLR,0.00,VWS V14.01,2013-06-05 13:43:00,
2013-06-05 09:48:00,67.1,17.9,29.77,East,94,0.0,0.0,15,0.00,,CLR,0.00,VWS V14.01,2013-06-05 13:48:00,
2013-06-05 09:53:00,68.0,18.7,29.77,NW,312,5.4,5.4,15,0.00,,CLR,0.00,VWS V14.01,2013-06-05 13:53:00,
2013-06-05 09:59:00,68.2,18.8,29.77,North,9,0.0,0.0,15,0.00,,CLR,0.00,VWS V14.01,2013-06-05 13:59:00,
2013-06-05 10:03:00,68.2,18.8,29.77,North,349,2.7,2.7,15,0.00,,CLR,0.00,VWS V14.01,2013-06-05 14:03:00,
2013-06-05 10:08:00,70.2,18.8,29.74,SE,144,3.1,3.1,14,0.00,,CLR,0.00,VWS V14.01,2013-06-05 14:08:00,
2013-06-05 10:13:00,71.1,19.5,29.74,SSE,154,0.0,0.0,14,0.00,,CLR,0.00,VWS V14.01,2013-06-05 14:13:00,
2013-06-05 10:18:00,71.4,19.8,29.74,NNE,33,0.0,0.0,14,0.00,,CLR,0.00,VWS V14.01,2013-06-05 14:18:00,
2013-06-05 10:24:00,72.3,20.5,29.74,SE,144,0.0,0.0,14,0.00,,CLR,0.00,VWS V14.01,2013-06-05 14:24:00,
2013-06-05 10:28:00,72.3,20.5,29.74,ENE,69,0.0,0.0,14,0.00,,CLR,0.00,VWS V14.01,2013-06-05 14:28:00,
2013-06-05 10:33:00,71.6,19.9,29.74,NNW,337,2.7,2.7,14,0.00,,CLR,0.00,VWS V14.01,2013-06-05 14:33:00,
2013-06-05 10:38:00,71.6,19.9,29.74,SSW,210,0.0,0.0,14,0.00,,CLR,0.00,VWS V14.01,2013-06-05 14:38:00,
2013-06-05 10:44:00,71.6,19.9,29.74,SE,133,3.1,3.1,14,0.00,,CLR,0.00,VWS V14.01,2013-06-05 14:44:00,
2013-06-05 10:49:00,71.6,19.9,29.74,NE,51,0.0,3.1,14,0.00,,CLR,0.00,VWS V14.01,2013-06-05 14:49:00,
2013-06-05 10:53:00,71.6,19.9,29.74,ESE,112,0.0,2.7,14,0.00,,CLR,0.00,VWS V14.01,2013-06-05 14:53:00,
2013-06-05 10:59:00,71.4,19.8,29.74,East,82,0.0,0.0,14,0.00,,CLR,0.00,VWS V14.01,2013-06-05 14:59:00,
2013-06-05 11:04:00,71.4,19.8,29.74,North,0,0.0,0.0,14,0.00,,CLR,0.00,VWS V14.01,2013-06-05 15:04:00,
2013-06-05 11:09:00,71.4,19.8,29.74,West,263,0.0,0.0,14,0.00,,CLR,0.00,VWS V14.01,2013-06-05 15:09:00,
2013-06-05 11:14:00,71.1,19.5,29.74,SE,137,0.0,5.8,14,0.00,,CLR,0.00,VWS V14.01,2013-06-05 15:14:00,
2013-06-05 11:19:00,70.5,19.1,29.74,NNE,25,0.0,0.0,14,0.00,,CLR,0.00,VWS V14.01,2013-06-05 15:19:00,
2013-06-05 11:24:00,70.7,19.2,29.74,ENE,57,0.0,3.6,14,0.00,,CLR,0.00,VWS V14.01,2013-06-05 15:24:00,
2013-06-05 11:29:00,70.7,19.2,29.74,NE,52,5.4,5.8,14,0.00,,CLR,0.00,VWS V14.01,2013-06-05 15:29:00,
2013-06-05 11:34:00,70.7,19.2,29.74,NE,55,0.0,3.1,14,0.00,,CLR,0.00,VWS V14.01,2013-06-05 15:34:00,
2013-06-05 11:39:00,70.9,19.4,29.74,South,175,4.0,4.0,14,0.00,,CLR,0.00,VWS V14.01,2013-06-05 15:39:00,
2013-06-05 11:44:00,71.1,19.5,29.74,North,11,0.0,0.0,14,0.00,,CLR,0.00,VWS V14.01,2013-06-05 15:44:00,
2013-06-05 11:49:00,72.3,20.5,29.74,NNE,32,0.0,0.0,14,0.00,,CLR,0.00,VWS V14.01,2013-06-05 15:49:00,
2013-06-05 11:54:00,72.7,20.8,29.74,SSE,155,0.0,0.0,14,0.00,,CLR,0.00,VWS V14.01,2013-06-05 15:54:00,
2013-06-05 11:59:00,72.3,20.5,29.74,ENE,68,0.0,0.0,14,0.00,,CLR,0.00,VWS V14.01,2013-06-05 15:59:00,
2013-06-05 12:04:00,72.5,20.6,29.74,ESE,120,0.0,0.0,14,0.00,,CLR,0.00,VWS V14.01,2013-06-05 16:04:00,
2013-06-05 12:09:00,73.0,21.1,29.74,SE,124,0.0,4.0,14,0.00,,CLR,0.00,VWS V14.01,2013-06-05 16:09:00,
2013-06-05 12:14:00,73.6,19.8,29.74,NNE,18,0.0,0.0,13,0.00,,CLR,0.00,VWS V14.01,2013-06-05 16:14:00,
2013-06-05 12:19:00,73.9,20.0,29.74,NW,321,3.1,3.1,13,0.00,,CLR,0.00,VWS V14.01,2013-06-05 16:19:00,
2013-06-05 12:24:00,74.7,20.6,29.74,NE,49,0.0,0.0,13,0.00,,CLR,0.00,VWS V14.01,2013-06-05 16:24:00,
2013-06-05 12:29:00,75.4,21.2,29.71,NNE,33,0.0,0.0,13,0.00,,CLR,0.00,VWS V14.01,2013-06-05 16:29:00,
2013-06-05 12:34:00,75.6,21.3,29.71,West,278,0.0,0.0,13,0.00,,CLR,0.00,VWS V14.01,2013-06-05 16:34:00,
2013-06-05 12:39:00,75.6,21.3,29.71,SE,145,0.0,0.0,13,0.00,,CLR,0.00,VWS V14.01,2013-06-05 16:39:00,
2013-06-05 12:44:00,75.4,21.2,29.71,SSE,167,2.2,2.2,13,0.00,,CLR,0.00,VWS V14.01,2013-06-05 16:44:00,
2013-06-05 12:49:00,75.0,20.9,29.71,NNE,25,0.0,0.0,13,0.00,,CLR,0.00,VWS V14.01,2013-06-05 16:49:00,
2013-06-05 12:54:00,75.0,20.9,29.71,WNW,285,0.0,0.0,13,0.00,,CLR,0.00,VWS V14.01,2013-06-05 16:54:00,
2013-06-05 12:59:00,75.2,21.0,29.71,ENE,57,0.0,0.0,13,0.00,,CLR,0.00,VWS V14.01,2013-06-05 16:59:00,
2013-06-05 13:04:00,75.2,21.0,29.71,NE,50,0.0,0.0,13,0.00,,CLR,0.00,VWS V14.01,2013-06-05 17:04:00,
2013-06-05 13:09:00,74.5,20.5,29.71,SE,124,2.7,2.7,13,0.00,,CLR,0.00,VWS V14.01,2013-06-05 17:09:00,
2013-06-05 13:14:00,74.5,20.5,29.71,SSE,150,0.0,0.0,13,0.00,,CLR,0.00,VWS V14.01,2013-06-05 17:14:00,
2013-06-05 13:19:00,74.3,20.3,29.71,SE,127,3.6,3.6,13,0.00,,CLR,0.00,VWS V14.01,2013-06-05 17:19:00,
2013-06-05 13:24:00,74.3,20.3,29.71,East,101,4.0,4.0,13,0.00,,CLR,0.00,VWS V14.01,2013-06-05 17:24:00,
2013-06-05 13:29:00,74.3,20.3,29.71,SSE,153,5.8,5.8,13,0.00,,CLR,0.00,VWS V14.01,2013-06-05 17:29:00,
2013-06-05 13:34:00,74.1,20.2,29.71,SE,139,2.7,2.7,13,0.00,,CLR,0.00,VWS V14.01,2013-06-05 17:34:00,
2013-06-05 13:39:00,74.1,20.2,29.71,NNW,341,3.6,3.6,13,0.00,,CLR,0.00,VWS V14.01,2013-06-05 17:39:00,
2013-06-05 13:44:00,74.1,20.2,29.71,NW,316,2.7,2.7,13,0.00,,CLR,0.00,VWS V14.01,2013-06-05 17:44:00,
2013-06-05 13:49:00,73.6,19.8,29.71,North,357,0.0,0.0,13,0.00,,CLR,0.00,VWS V14.01,2013-06-05 17:49:00,
2013-06-05 13:54:00,73.6,19.8,29.71,West,278,0.0,0.0,13,0.00,,CLR,0.00,VWS V14.01,2013-06-05 17:54:00,
2013-06-05 13:59:00,73.0,21.1,29.71,NW,308,0.0,0.0,14,0.00,,CLR,0.00,VWS V14.01,2013-06-05 17:59:00,
2013-06-05 14:04:00,72.9,20.9,29.71,ESE,104,0.0,0.0,14,0.00,,CLR,0.00,VWS V14.01,2013-06-05 18:04:00,
2013-06-05 14:09:00,74.1,20.2,29.71,East,96,0.0,0.0,13,0.00,,CLR,0.00,VWS V14.01,2013-06-05 18:09:00,
2013-06-05 14:14:00,75.0,20.9,29.68,SSE,158,0.0,0.0,13,0.00,,CLR,0.00,VWS V14.01,2013-06-05 18:14:00,
2013-06-05 14:19:00,75.4,21.2,29.68,South,181,2.2,2.2,13,0.00,,CLR,0.00,VWS V14.01,2013-06-05 18:19:00,
2013-06-05 14:24:00,75.4,21.2,29.68,East,84,0.0,0.0,13,0.00,,CLR,0.00,VWS V14.01,2013-06-05 18:24:00,
2013-06-05 14:29:00,75.4,21.2,29.68,SSW,207,0.0,0.0,13,0.00,,CLR,0.00,VWS V14.01,2013-06-05 18:29:00,
2013-06-05 14:34:00,75.4,21.2,29.68,NNE,29,0.0,0.0,13,0.00,,CLR,0.00,VWS V14.01,2013-06-05 18:34:00,
2013-06-05 14:39:00,75.2,21.0,29.68,ESE,115,0.0,0.0,13,0.00,,CLR,0.00,VWS V14.01,2013-06-05 18:39:00,
2013-06-05 14:44:00,74.8,20.7,29.68,North,349,0.0,6.3,13,0.00,,CLR,0.00,VWS V14.01,2013-06-05 18:44:00,
2013-06-05 14:49:00,74.8,20.7,29.68,SE,137,0.0,0.0,13,0.00,,CLR,0.00,VWS V14.01,2013-06-05 18:49:00,
2013-06-05 14:54:00,75.0,20.9,29.68,ENE,74,0.0,0.0,13,0.00,,CLR,0.00,VWS V14.01,2013-06-05 18:54:00,
2013-06-05 14:59:00,75.6,21.3,29.65,SE,124,5.4,5.4,13,0.00,,CLR,0.00,VWS V14.01,2013-06-05 18:59:00,
2013-06-05 15:04:00,75.4,21.2,29.65,ENE,61,0.0,3.6,13,0.00,,CLR,0.00,VWS V14.01,2013-06-05 19:04:00,
2013-06-05 15:09:00,75.0,20.9,29.65,ESE,103,0.0,0.0,13,0.00,,CLR,0.00,VWS V14.01,2013-06-05 19:09:00,
2013-06-05 15:14:00,75.0,20.9,29.65,NW,318,0.0,0.0,13,0.00,,CLR,0.00,VWS V14.01,2013-06-05 19:14:00,
2013-06-05 15:19:00,74.3,20.3,29.65,ENE,74,0.0,0.0,13,0.00,,CLR,0.00,VWS V14.01,2013-06-05 19:19:00,
2013-06-05 15:24:00,74.1,20.2,29.65,SSE,149,3.6,3.6,13,0.00,,CLR,0.00,VWS V14.01,2013-06-05 19:24:00,
2013-06-05 15:29:00,74.1,20.2,29.65,NW,316,2.7,3.6,13,0.00,,CLR,0.00,VWS V14.01,2013-06-05 19:29:00,
2013-06-05 15:34:00,73.8,19.9,29.65,SE,126,4.9,4.9,13,0.00,,CLR,0.00,VWS V14.01,2013-06-05 19:34:00,
2013-06-05 15:39:00,73.6,19.8,29.65,North,10,0.0,0.0,13,0.00,,CLR,0.00,VWS V14.01,2013-06-05 19:39:00,
2013-06-05 15:44:00,73.8,19.9,29.65,SSE,147,0.0,0.0,13,0.00,,CLR,0.00,VWS V14.01,2013-06-05 19:44:00,
2013-06-05 15:49:00,73.6,19.8,29.65,SE,137,3.1,3.1,13,0.00,,CLR,0.00,VWS V14.01,2013-06-05 19:49:00,
2013-06-05 15:54:00,73.6,19.8,29.68,South,174,4.9,4.9,13,0.00,,CLR,0.00,VWS V14.01,2013-06-05 19:54:00,
2013-06-05 15:59:00,73.0,21.1,29.68,ESE,122,3.1,3.1,14,0.00,,CLR,0.00,VWS V14.01,2013-06-05 19:59:00,
2013-06-05 16:04:00,73.0,21.1,29.68,SE,144,5.8,5.8,14,0.00,,CLR,0.00,VWS V14.01,2013-06-05 20:04:00,
2013-06-05 16:09:00,72.5,20.6,29.68,East,91,3.6,4.9,14,0.00,,CLR,0.00,VWS V14.01,2013-06-05 20:09:00,
2013-06-05 16:14:00,72.5,20.6,29.68,NNE,31,2.7,5.4,14,0.00,,CLR,0.00,VWS V14.01,2013-06-05 20:14:00,
2013-06-05 16:19:00,72.5,20.6,29.68,NNE,30,4.0,4.0,14,0.00,,CLR,0.00,VWS V14.01,2013-06-05 20:19:00,
2013-06-05 16:24:00,72.5,20.6,29.68,SSE,148,4.9,8.1,14,0.00,,CLR,0.00,VWS V14.01,2013-06-05 20:24:00,
2013-06-05 16:29:00,72.3,20.5,29.68,SE,139,5.4,5.4,14,0.00,,CLR,0.00,VWS V14.01,2013-06-05 20:29:00,
2013-06-05 16:34:00,72.0,20.2,29.68,NNW,327,3.1,3.1,14,0.00,,CLR,0.00,VWS V14.01,2013-06-05 20:34:00,
2013-06-05 16:39:00,72.0,20.2,29.68,ESE,112,2.2,3.6,14,0.00,,CLR,0.00,VWS V14.01,2013-06-05 20:39:00,
2013-06-05 16:44:00,72.0,20.2,29.68,North,357,2.7,2.7,14,0.00,,CLR,0.00,VWS V14.01,2013-06-05 20:44:00,
2013-06-05 16:49:00,72.1,20.4,29.68,SSE,162,3.1,3.1,14,0.00,,CLR,0.00,VWS V14.01,2013-06-05 20:49:00,
2013-06-05 16:54:00,72.1,20.4,29.68,SSE,153,5.4,5.4,14,0.00,,CLR,0.00,VWS V14.01,2013-06-05 20:54:00,
2013-06-05 16:59:00,71.8,20.1,29.68,ESE,106,2.7,2.7,14,0.00,,CLR,0.00,VWS V14.01,2013-06-05 20:59:00,
2013-06-05 17:04:00,71.8,20.1,29.68,ESE,113,3.1,3.1,14,0.00,,CLR,0.00,VWS V14.01,2013-06-05 21:04:00,
2013-06-05 17:09:00,71.6,19.9,29.68,SE,125,2.7,2.7,14,0.00,,CLR,0.00,VWS V14.01,2013-06-05 21:09:00,
2013-06-05 17:14:00,71.6,19.9,29.68,SE,140,0.0,5.4,14,0.00,,CLR,0.00,VWS V14.01,2013-06-05 21:14:00,
2013-06-05 17:19:00,71.6,19.9,29.68,East,99,0.0,0.0,14,0.00,,CLR,0.00,VWS V14.01,2013-06-05 21:19:00,
2013-06-05 17:24:00,71.4,19.8,29.68,SSE,157,3.6,3.6,14,0.00,,CLR,0.00,VWS V14.01,2013-06-05 21:24:00,
2013-06-05 17:29:00,71.2,19.6,29.68,ENE,58,0.0,0.0,14,0.00,,CLR,0.00,VWS V14.01,2013-06-05 21:29:00,
2013-06-05 17:34:00,71.2,19.6,29.68,ESE,106,0.0,0.0,14,0.00,,CLR,0.00,VWS V14.01,2013-06-05 21:34:00,
2013-06-05 17:39:00,71.2,19.6,29.68,NE,48,0.0,0.0,14,0.00,,CLR,0.00,VWS V14.01,2013-06-05 21:39:00,
2013-06-05 17:44:00,71.2,19.6,29.68,ESE,115,2.7,2.7,14,0.00,,CLR,0.00,VWS V14.01,2013-06-05 21:44:00,
2013-06-05 17:49:00,71.2,19.6,29.68,ESE,118,0.0,0.0,14,0.00,,CLR,0.00,VWS V14.01,2013-06-05 21:49:00,
2013-06-05 17:54:00,70.7,19.2,29.68,SE,146,0.0,0.0,14,0.00,,CLR,0.00,VWS V14.01,2013-06-05 21:54:00,
2013-06-05 17:59:00,70.7,19.2,29.68,North,7,0.0,0.0,14,0.00,,CLR,0.00,VWS V14.01,2013-06-05 21:59:00,
2013-06-05 18:04:00,70.7,19.2,29.68,ESE,104,0.0,0.0,14,0.00,,CLR,0.00,VWS V14.01,2013-06-05 22:04:00,
2013-06-05 18:09:00,70.5,19.1,29.68,ESE,118,0.0,0.0,14,0.00,,CLR,0.00,VWS V14.01,2013-06-05 22:09:00,
2013-06-05 18:14:00,70.3,18.9,29.68,ENE,78,0.0,0.0,14,0.00,,CLR,0.00,VWS V14.01,2013-06-05 22:14:00,
2013-06-05 18:19:00,70.3,18.9,29.68,SE,138,3.6,3.6,14,0.00,,CLR,0.00,VWS V14.01,2013-06-05 22:19:00,
2013-06-05 18:24:00,70.2,18.8,29.68,SSE,156,4.9,4.9,14,0.00,,CLR,0.00,VWS V14.01,2013-06-05 22:24:00,
2013-06-05 18:29:00,70.2,18.8,29.68,SE,134,3.6,3.6,14,0.00,,CLR,0.00,VWS V14.01,2013-06-05 22:29:00,
2013-06-05 18:34:00,69.8,18.5,29.68,SSW,201,0.0,3.6,14,0.00,,CLR,0.00,VWS V14.01,2013-06-05 22:34:00,
2013-06-05 18:39:00,69.6,20.0,29.68,SSE,149,0.0,0.0,15,0.00,,CLR,0.00,VWS V14.01,2013-06-05 22:39:00,
2013-06-05 18:44:00,69.4,19.8,29.68,ENE,64,0.0,0.0,15,0.00,,CLR,0.00,VWS V14.01,2013-06-05 22:44:00,
2013-06-05 18:49:00,69.4,19.8,29.68,ESE,120,0.0,3.6,15,0.00,,CLR,0.00,VWS V14.01,2013-06-05 22:49:00,
2013-06-05 18:54:00,69.3,19.7,29.65,SSE,156,2.7,2.7,15,0.00,,CLR,0.00,VWS V14.01,2013-06-05 22:54:00,
2013-06-05 18:59:00,69.1,19.5,29.65,East,89,2.2,3.1,15,0.00,,CLR,0.00,VWS V14.01,2013-06-05 22:59:00,
2013-06-05 19:04:00,68.9,19.4,29.65,SSE,155,3.6,3.6,15,0.00,,CLR,0.00,VWS V14.01,2013-06-05 23:04:00,
2013-06-05 19:09:00,68.7,19.2,29.68,SSE,155,0.0,0.0,15,0.00,,CLR,0.00,VWS V14.01,2013-06-05 23:09:00,
2013-06-05 19:14:00,68.5,19.1,29.68,NNE,20,0.0,0.0,15,0.00,,CLR,0.00,VWS V14.01,2013-06-05 23:14:00,
2013-06-05 19:19:00,68.4,19.0,29.68,ESE,116,0.0,0.0,15,0.00,,CLR,0.00,VWS V14.01,2013-06-05 23:19:00,
2013-06-05 19:24:00,68.2,18.8,29.68,SSE,160,0.0,0.0,15,0.00,,CLR,0.00,VWS V14.01,2013-06-05 23:24:00,
2013-06-05 19:29:00,67.8,18.5,29.68,SSE,163,0.0,0.0,15,0.00,,CLR,0.00,VWS V14.01,2013-06-05 23:29:00,
2013-06-05 19:34:00,67.5,18.2,29.68,SSE,163,0.0,0.0,15,0.00,,CLR,0.00,VWS V14.01,2013-06-05 23:34:00,
2013-06-05 19:39:00,67.3,18.1,29.68,SSE,150,0.0,0.0,15,0.00,,CLR,0.00,VWS V14.01,2013-06-05 23:39:00,
2013-06-05 19:44:00,67.1,17.9,29.68,SSE,150,0.0,0.0,15,0.00,,CLR,0.00,VWS V14.01,2013-06-05 23:44:00,
2013-06-05 19:49:00,66.9,17.8,29.68,SE,140,0.0,0.0,15,0.00,,CLR,0.00,VWS V14.01,2013-06-05 23:49:00,
2013-06-05 19:54:00,66.4,17.4,29.65,WSW,242,0.0,0.0,15,0.00,,CLR,0.00,VWS V14.01,2013-06-05 23:54:00,
2013-06-05 19:59:00,66.2,17.2,29.65,SE,140,0.0,0.0,15,0.00,,CLR,0.00,VWS V14.01,2013-06-05 23:59:00,
2013-06-05 20:04:00,65.8,16.9,29.65,SE,143,0.0,0.0,15,0.00,,CLR,0.00,VWS V14.01,2013-06-06 00:04:00,
2013-06-05 20:09:00,65.5,16.6,29.65,SE,143,0.0,0.0,15,0.00,,CLR,0.00,VWS V14.01,2013-06-06 00:09:00,
2013-06-05 20:14:00,65.3,16.5,29.68,SE,143,0.0,0.0,15,0.00,,CLR,0.00,VWS V14.01,2013-06-06 00:14:00,
2013-06-05 20:19:00,64.8,16.1,29.68,SE,143,0.0,0.0,15,0.00,,CLR,0.00,VWS V14.01,2013-06-06 00:19:00,
2013-06-05 20:24:00,64.4,15.8,29.68,South,172,0.0,0.0,15,0.00,,CLR,0.00,VWS V14.01,2013-06-06 00:24:00,
2013-06-05 20:29:00,64.0,17.0,29.68,South,172,0.0,0.0,16,0.00,,CLR,0.00,VWS V14.01,2013-06-06 00:29:00,
2013-06-05 20:34:00,63.7,16.7,29.68,South,172,0.0,0.0,16,0.00,,CLR,0.00,VWS V14.01,2013-06-06 00:34:00,
2013-06-05 20:39:00,63.5,16.5,29.68,SSE,164,0.0,0.0,16,0.00,,CLR,0.00,VWS V14.01,2013-06-06 00:39:00,
2013-06-05 20:44:00,62.8,15.9,29.68,SSE,164,0.0,0.0,16,0.00,,CLR,0.00,VWS V14.01,2013-06-06 00:44:00,
2013-06-05 20:49:00,62.1,15.4,29.68,SSE,158,0.0,0.0,16,0.00,,CLR,0.00,VWS V14.01,2013-06-06 00:49:00,
2013-06-05 20:54:00,61.7,15.1,29.68,SSE,147,0.0,0.0,16,0.00,,CLR,0.00,VWS V14.01,2013-06-06 00:54:00,
2013-06-05 20:59:00,61.2,14.6,29.68,SSE,147,0.0,0.0,16,0.00,,CLR,0.00,VWS V14.01,2013-06-06 00:59:00,
2013-06-05 21:04:00,61.0,14.5,29.68,SSE,147,0.0,0.0,16,0.00,,CLR,0.00,VWS V14.01,2013-06-06 01:04:00,
2013-06-05 21:09:00,60.4,15.4,29.68,SSE,147,0.0,0.0,17,0.00,,CLR,0.00,VWS V14.01,2013-06-06 01:09:00,
2013-06-05 21:14:00,60.1,15.1,29.68,SSE,154,0.0,0.0,17,0.00,,CLR,0.00,VWS V14.01,2013-06-06 01:14:00,
2013-06-05 21:19:00,59.9,15.0,29.68,SE,143,0.0,0.0,17,0.00,,CLR,0.00,VWS V14.01,2013-06-06 01:19:00,
2013-06-05 21:24:00,59.7,14.9,29.68,SE,146,2.7,2.7,17,0.00,,CLR,0.00,VWS V14.01,2013-06-06 01:24:00,
2013-06-05 21:29:00,59.4,14.6,29.68,SSE,152,0.0,0.0,17,0.00,,CLR,0.00,VWS V14.01,2013-06-06 01:29:00,
2013-06-05 21:34:00,59.2,14.4,29.68,SSE,152,0.0,0.0,17,0.00,,CLR,0.00,VWS V14.01,2013-06-06 01:34:00,
2013-06-05 21:39:00,59.2,14.4,29.68,SSE,152,0.0,0.0,17,0.00,,CLR,0.00,VWS V14.01,2013-06-06 01:39:00,
2013-06-05 21:44:00,58.8,14.1,29.68,SSE,152,0.0,0.0,17,0.00,,CLR,0.00,VWS V14.01,2013-06-06 01:44:00,
2013-06-05 21:49:00,58.6,14.0,29.68,SSE,152,0.0,0.0,17,0.00,,CLR,0.00,VWS V14.01,2013-06-06 01:49:00,
2013-06-05 21:54:00,58.3,13.7,29.68,SE,140,0.0,0.0,17,0.00,,CLR,0.00,VWS V14.01,2013-06-06 01:54:00,
2013-06-05 21:59:00,58.1,16.1,29.68,SE,138,0.0,0.0,19,0.00,,CLR,0.00,VWS V14.01,2013-06-06 01:59:00,
2013-06-05 22:04:00,57.9,15.9,29.68,SE,138,0.0,0.0,19,0.00,,CLR,0.00,VWS V14.01,2013-06-06 02:04:00,
2013-06-05 22:09:00,57.7,15.8,29.68,SE,138,0.0,0.0,19,0.00,,CLR,0.00,VWS V14.01,2013-06-06 02:09:00,
2013-06-05 22:14:00,57.7,15.8,29.68,SE,138,0.0,0.0,19,0.00,,CLR,0.00,VWS V14.01,2013-06-06 02:14:00,
2013-06-05 22:19:00,57.6,15.6,29.68,SE,138,0.0,0.0,19,0.00,,CLR,0.00,VWS V14.01,2013-06-06 02:19:00,
2013-06-05 22:24:00,57.4,15.5,29.68,SE,139,0.0,0.0,19,0.00,,CLR,0.00,VWS V14.01,2013-06-06 02:24:00,
2013-06-05 22:29:00,57.2,15.3,29.68,SE,140,0.0,0.0,19,0.00,,CLR,0.00,VWS V14.01,2013-06-06 02:29:00,
2013-06-05 22:34:00,57.0,18.6,29.68,SE,141,0.0,0.0,22,0.00,,CLR,0.00,VWS V14.01,2013-06-06 02:34:00,
2013-06-05 22:39:00,56.8,18.4,29.71,SE,141,0.0,0.0,22,0.00,,CLR,0.00,VWS V14.01,2013-06-06 02:39:00,
2013-06-05 22:44:00,56.8,18.4,29.71,SE,141,0.0,0.0,22,0.00,,CLR,0.00,VWS V14.01,2013-06-06 02:44:00,
2013-06-05 22:49:00,56.8,18.4,29.71,SSE,159,0.0,0.0,22,0.00,,CLR,0.00,VWS V14.01,2013-06-06 02:49:00,
2013-06-05 22:54:00,56.8,18.4,29.71,SSE,159,0.0,0.0,22,0.00,,CLR,0.00,VWS V14.01,2013-06-06 02:54:00,
2013-06-05 22:59:00,56.7,18.3,29.71,SSE,159,0.0,0.0,22,0.00,,CLR,0.00,VWS V14.01,2013-06-06 02:59:00,
2013-06-05 23:04:00,56.7,18.3,29.71,SSE,159,0.0,0.0,22,0.00,,CLR,0.00,VWS V14.01,2013-06-06 03:04:00,
2013-06-05 23:09:00,56.5,18.1,29.71,SSE,159,0.0,0.0,22,0.00,,CLR,0.00,VWS V14.01,2013-06-06 03:09:00,
2013-06-05 23:15:00,56.3,18.0,29.68,SSE,159,0.0,0.0,22,0.00,,CLR,0.00,VWS V14.01,2013-06-06 03:15:00,
2013-06-05 23:20:00,56.3,21.0,29.68,SE,145,2.2,2.2,25,0.00,,CLR,0.00,VWS V14.01,2013-06-06 03:20:00,
2013-06-05 23:25:00,56.3,21.0,29.68,SE,145,0.0,0.0,25,0.00,,CLR,0.00,VWS V14.01,2013-06-06 03:25:00,
2013-06-05 23:30:00,56.1,20.8,29.68,SE,145,0.0,0.0,25,0.00,,CLR,0.00,VWS V14.01,2013-06-06 03:30:00,
2013-06-05 23:35:00,55.9,20.6,29.68,SE,145,0.0,0.0,25,0.00,,CLR,0.00,VWS V14.01,2013-06-06 03:35:00,
2013-06-05 23:40:00,55.8,20.5,29.68,SE,145,0.0,0.0,25,0.00,,CLR,0.00,VWS V14.01,2013-06-06 03:40:00,
2013-06-05 23:45:00,55.6,20.3,29.68,SE,145,0.0,0.0,25,0.00,,CLR,0.00,VWS V14.01,2013-06-06 03:45:00,
2013-06-05 23:50:00,55.2,21.0,29.68,SE,145,0.0,0.0,26,0.00,,CLR,0.00,VWS V14.01,2013-06-06 03:50:00,
2013-06-05 23:55:00,55.2,21.0,29.68,SE,145,0.0,0.0,26,0.00,,CLR,0.00,VWS V14.01,2013-06-06 03:55:00,